Terminal Aerodrome Forecast
Issued by NWS

Home | Current Version | Previous Version | Text Only | Print | Product List | Glossary On
Versions: 1 2 3 4 5 6 7 8 9 10 11 12 13 14 15 16 17 18 19 20
263
FTUS42 KFFC 221739
TAFPDK
TAF
KPDK 221739Z 2218/2318 12006KT P6SM VCSH BKN035
     FM222000 15007KT 6SM SHRA OVC035
      TEMPO 2220/2223 VRB12G20KT 4SM -TSRA BKN030CB
     FM230100 13006KT P6SM OVC012
     FM230800 20007KT 6SM BR SCT005 BKN012
     FM231500 20011KT P6SM SCT025=

USA.gov is the U.S. government's official web portal to all federal, state and local government web resources and services.